createdAt,value
2023-02-01T00:00:31.352Z,1019.21
2023-02-01T00:01:31.404Z,1019.18
2023-02-01T00:02:31.365Z,1019.20
2023-02-01T00:03:31.332Z,1019.20
2023-02-01T00:04:31.277Z,1019.16
2023-02-01T00:05:31.295Z,1019.13
2023-02-01T00:06:31.273Z,1019.06
2023-02-01T00:07:31.278Z,1019.15
2023-02-01T00:08:31.227Z,1019.07
2023-02-01T00:09:31.205Z,1019.12
2023-02-01T00:10:31.224Z,1019.13
2023-02-01T00:11:31.191Z,1019.16
2023-02-01T00:12:31.205Z,1019.07
2023-02-01T00:13:31.158Z,1019.07
2023-02-01T00:14:31.149Z,1019.15
2023-02-01T00:15:31.138Z,1019.10
2023-02-01T00:16:31.139Z,1019.10
2023-02-01T00:17:38.649Z,1019.12
2023-02-01T00:18:38.625Z,1019.09
2023-02-01T00:19:38.631Z,1019.09
2023-02-01T00:20:31.107Z,1019.05
2023-02-01T00:21:31.096Z,1019.07
2023-02-01T00:22:31.084Z,1019.05
2023-02-01T00:23:31.081Z,1019.05
2023-02-01T00:24:31.030Z,1019.08
2023-02-01T00:25:31.056Z,1019.08
2023-02-01T00:26:31.041Z,1019.03
2023-02-01T00:27:31.001Z,1019.06
2023-02-01T00:28:30.970Z,1019.00
2023-02-01T00:29:31.032Z,1019.02
2023-02-01T00:30:30.955Z,1019.01
2023-02-01T00:31:30.997Z,1018.96
2023-02-01T00:32:30.934Z,1018.88
2023-02-01T00:33:30.935Z,1018.95
2023-02-01T00:34:30.883Z,1018.90
2023-02-01T00:35:30.904Z,1018.89
2023-02-01T00:36:30.858Z,1018.88
2023-02-01T00:37:30.860Z,1018.83
2023-02-01T00:38:30.855Z,1018.77
2023-02-01T00:39:30.844Z,1018.73
2023-02-01T00:40:30.814Z,1018.71
2023-02-01T00:41:30.812Z,1018.80
2023-02-01T00:42:30.794Z,1018.67
2023-02-01T00:43:30.806Z,1018.60
2023-02-01T00:44:30.755Z,1018.60
2023-02-01T00:45:30.771Z,1018.53
2023-02-01T00:46:30.783Z,1018.56
2023-02-01T00:47:30.733Z,1018.58
2023-02-01T00:48:30.711Z,1018.65
2023-02-01T00:49:30.709Z,1018.66
2023-02-01T00:50:30.712Z,1018.65
2023-02-01T00:51:30.692Z,1018.65
2023-02-01T00:52:30.669Z,1018.63
2023-02-01T00:53:30.669Z,1018.66
2023-02-01T00:54:30.635Z,1018.64
2023-02-01T00:55:30.635Z,1018.68
2023-02-01T00:56:30.618Z,1018.74
2023-02-01T00:57:30.614Z,1018.70
2023-02-01T00:58:30.588Z,1018.78
2023-02-01T00:59:30.561Z,1018.76
2023-02-01T01:00:30.581Z,1018.71
2023-02-01T01:01:30.534Z,1018.90
2023-02-01T01:02:30.578Z,1018.94
2023-02-01T01:03:30.554Z,1018.93
2023-02-01T01:04:30.500Z,1018.94
2023-02-01T01:05:30.483Z,1018.97
2023-02-01T01:06:30.492Z,1018.95
2023-02-01T01:07:30.468Z,1018.91
2023-02-01T01:08:30.472Z,1018.97
2023-02-01T01:09:30.445Z,1018.95
2023-02-01T01:10:30.436Z,1018.85
2023-02-01T01:11:30.402Z,1018.89
2023-02-01T01:12:30.416Z,1018.83
2023-02-01T01:13:30.412Z,1018.87
2023-02-01T01:14:30.360Z,1018.89
2023-02-01T01:15:30.357Z,1018.87
2023-02-01T01:16:30.411Z,1018.86
2023-02-01T01:17:30.361Z,1018.89
2023-02-01T01:18:30.322Z,1018.90
2023-02-01T01:19:30.345Z,1018.91
2023-02-01T01:20:30.301Z,1018.91
2023-02-01T01:21:30.287Z,1018.86
2023-02-01T01:22:30.285Z,1018.97
2023-02-01T01:23:30.254Z,1018.89
2023-02-01T01:24:30.258Z,1018.86
2023-02-01T01:25:30.264Z,1018.81
2023-02-01T01:26:30.294Z,1018.77
2023-02-01T01:27:30.222Z,1018.75
2023-02-01T01:28:30.201Z,1018.73
2023-02-01T01:29:30.220Z,1018.72
2023-02-01T01:30:30.242Z,1018.72
2023-02-01T01:31:30.281Z,1018.73
2023-02-01T01:32:30.209Z,1018.78
2023-02-01T01:33:30.137Z,1018.76
2023-02-01T01:34:30.186Z,1018.75
2023-02-01T01:35:30.129Z,1018.73
2023-02-01T01:36:30.154Z,1018.76
2023-02-01T01:37:30.174Z,1018.78
2023-02-01T01:38:30.111Z,1018.74
2023-02-01T01:39:30.065Z,1018.77
2023-02-01T01:40:30.046Z,1018.78
2023-02-01T01:41:30.066Z,1018.75
2023-02-01T01:42:30.043Z,1018.77
2023-02-01T01:43:30.015Z,1018.75
2023-02-01T01:44:30.001Z,1018.78
2023-02-01T01:45:29.985Z,1018.69
2023-02-01T01:46:30.044Z,1018.64
2023-02-01T01:47:29.984Z,1018.61
2023-02-01T01:48:29.993Z,1018.55
2023-02-01T01:49:29.939Z,1018.59
2023-02-01T01:50:29.974Z,1018.61
2023-02-01T01:51:29.923Z,1018.63
2023-02-01T01:52:29.919Z,1018.64
2023-02-01T01:53:29.875Z,1018.55
2023-02-01T01:54:29.882Z,1018.58
2023-02-01T01:55:29.866Z,1018.65
2023-02-01T01:56:29.888Z,1018.61
2023-02-01T01:57:29.837Z,1018.63
2023-02-01T01:58:29.852Z,1018.56
2023-02-01T01:59:29.815Z,1018.57
2023-02-01T02:00:29.854Z,1018.64
2023-02-01T02:01:29.794Z,1018.65
2023-02-01T02:02:29.847Z,1018.62
2023-02-01T02:03:29.755Z,1018.66
2023-02-01T02:04:29.757Z,1018.53
2023-02-01T02:05:29.730Z,1018.57
2023-02-01T02:06:29.721Z,1018.51
2023-02-01T02:07:29.740Z,1018.51
2023-02-01T02:08:29.728Z,1018.56
2023-02-01T02:09:29.696Z,1018.58
2023-02-01T02:10:29.672Z,1018.56
2023-02-01T02:11:29.683Z,1018.52
2023-02-01T02:12:29.676Z,1018.58
2023-02-01T02:13:29.659Z,1018.54
2023-02-01T02:14:29.639Z,1018.57
2023-02-01T02:15:29.632Z,1018.55
2023-02-01T02:16:29.764Z,1018.57
2023-02-01T02:17:29.580Z,1018.55
2023-02-01T02:18:29.578Z,1018.54
2023-02-01T02:19:29.597Z,1018.52
2023-02-01T02:20:29.543Z,1018.47
2023-02-01T02:21:29.527Z,1018.50
2023-02-01T02:22:29.556Z,1018.42
2023-02-01T02:23:29.504Z,1018.43
2023-02-01T02:24:29.483Z,1018.37
2023-02-01T02:25:29.484Z,1018.46
2023-02-01T02:26:29.513Z,1018.49
2023-02-01T02:27:29.499Z,1018.49
2023-02-01T02:28:29.440Z,1018.46
2023-02-01T02:29:29.470Z,1018.41
2023-02-01T02:30:29.439Z,1018.49
2023-02-01T02:31:29.451Z,1018.46
2023-02-01T02:32:29.440Z,1018.53
2023-02-01T02:33:29.376Z,1018.49
2023-02-01T02:34:29.373Z,1018.50
2023-02-01T02:35:29.427Z,1018.49
2023-02-01T02:36:29.331Z,1018.45
2023-02-01T02:37:29.337Z,1018.40
2023-02-01T02:38:29.344Z,1018.39
2023-02-01T02:39:29.308Z,1018.34
2023-02-01T02:40:29.282Z,1018.23
2023-02-01T02:41:29.311Z,1018.29
2023-02-01T02:42:29.271Z,1018.25
2023-02-01T02:43:29.262Z,1018.28
2023-02-01T02:44:29.232Z,1018.29
2023-02-01T02:45:29.280Z,1018.28
2023-02-01T02:46:29.224Z,1018.29
2023-02-01T02:47:29.203Z,1018.26
2023-02-01T02:48:29.198Z,1018.21
2023-02-01T02:49:29.223Z,1018.23
2023-02-01T02:50:29.187Z,1018.26
2023-02-01T02:51:29.162Z,1018.25
2023-02-01T02:52:29.170Z,1018.34
2023-02-01T02:53:29.125Z,1018.28
2023-02-01T02:54:29.134Z,1018.32
2023-02-01T02:55:29.111Z,1018.32
2023-02-01T02:56:29.103Z,1018.26
2023-02-01T02:57:29.097Z,1018.25
2023-02-01T02:58:29.087Z,1018.26
2023-02-01T02:59:29.054Z,1018.22
2023-02-01T03:00:29.079Z,1018.28
2023-02-01T03:01:29.036Z,1018.28
2023-02-01T03:02:29.035Z,1018.25
2023-02-01T03:03:29.010Z,1018.24
2023-02-01T03:04:28.983Z,1018.20
2023-02-01T03:05:29.004Z,1018.20
2023-02-01T03:06:28.962Z,1018.21
2023-02-01T03:07:28.979Z,1018.23
2023-02-01T03:08:28.940Z,1018.21
2023-02-01T03:09:28.938Z,1018.20
2023-02-01T03:10:28.899Z,1018.16
2023-02-01T03:11:28.948Z,1018.16
2023-02-01T03:12:28.902Z,1018.08
2023-02-01T03:13:28.887Z,1018.08
2023-02-01T03:14:28.862Z,1018.13
2023-02-01T03:15:28.851Z,1018.03
2023-02-01T03:16:28.898Z,1018.03
2023-02-01T03:17:28.840Z,1018.03
2023-02-01T03:18:28.810Z,1018.04
2023-02-01T03:19:28.794Z,1017.91
2023-02-01T03:20:28.785Z,1017.86
2023-02-01T03:21:28.795Z,1017.89
2023-02-01T03:22:28.773Z,1017.89
2023-02-01T03:23:28.754Z,1017.84
2023-02-01T03:24:28.756Z,1017.81
2023-02-01T03:25:28.743Z,1017.88
2023-02-01T03:26:37.478Z,1017.87
2023-02-01T03:27:36.243Z,1017.90
2023-02-01T03:28:28.691Z,1017.87
2023-02-01T03:29:28.665Z,1017.84
2023-02-01T03:30:28.652Z,1017.86
2023-02-01T03:31:28.659Z,1017.92
2023-02-01T03:32:28.652Z,1017.86
2023-02-01T03:33:28.633Z,1017.87
2023-02-01T03:34:28.609Z,1017.85
2023-02-01T03:35:28.584Z,1017.83
2023-02-01T03:36:28.579Z,1017.80
2023-02-01T03:37:28.609Z,1017.90
2023-02-01T03:38:28.593Z,1017.82
2023-02-01T03:39:28.555Z,1017.86
2023-02-01T03:40:28.524Z,1017.84
2023-02-01T03:41:28.512Z,1017.79
2023-02-01T03:42:28.503Z,1017.76
2023-02-01T03:43:28.486Z,1017.75
2023-02-01T03:44:28.557Z,1017.73
2023-02-01T03:45:28.497Z,1017.63
2023-02-01T03:46:28.461Z,1017.69
2023-02-01T03:47:28.431Z,1017.73
2023-02-01T03:48:28.427Z,1017.71
2023-02-01T03:49:28.401Z,1017.70
2023-02-01T03:50:28.436Z,1017.65
2023-02-01T03:51:28.385Z,1017.72
2023-02-01T03:52:28.383Z,1017.61
2023-02-01T03:53:28.359Z,1017.56
2023-02-01T03:54:28.360Z,1017.55
2023-02-01T03:55:28.388Z,1017.44
2023-02-01T03:56:28.354Z,1017.48
2023-02-01T03:57:28.308Z,1017.38
2023-02-01T03:58:28.285Z,1017.39
2023-02-01T03:59:28.281Z,1017.38
2023-02-01T04:00:28.285Z,1017.35
2023-02-01T04:01:28.308Z,1017.42
2023-02-01T04:02:28.294Z,1017.41
2023-02-01T04:03:28.235Z,1017.34
2023-02-01T04:04:28.224Z,1017.45
2023-02-01T04:05:28.206Z,1017.49
2023-02-01T04:06:28.193Z,1017.43
2023-02-01T04:07:28.196Z,1017.35
2023-02-01T04:08:28.212Z,1017.39
2023-02-01T04:09:28.179Z,1017.49
2023-02-01T04:10:28.167Z,1017.27
2023-02-01T04:11:28.129Z,1017.35
2023-02-01T04:12:28.133Z,1017.34
2023-02-01T04:13:28.122Z,1017.34
2023-02-01T04:14:28.127Z,1017.27
2023-02-01T04:15:28.099Z,1017.33
2023-02-01T04:16:28.096Z,1017.34
2023-02-01T04:17:28.077Z,1017.34
2023-02-01T04:18:28.070Z,1017.41
2023-02-01T04:19:28.081Z,1017.45
2023-02-01T04:20:28.042Z,1017.45
2023-02-01T04:21:28.015Z,1017.50
2023-02-01T04:22:27.999Z,1017.61
2023-02-01T04:23:27.982Z,1017.56
2023-02-01T04:24:27.974Z,1017.57
2023-02-01T04:25:27.991Z,1017.56
2023-02-01T04:26:27.981Z,1017.65
2023-02-01T04:27:59.205Z,1017.66
2023-02-01T04:28:59.148Z,1017.72
2023-02-01T04:29:59.164Z,1017.62
2023-02-01T04:30:59.389Z,1017.60
2023-02-01T04:31:59.118Z,1017.64
2023-02-01T04:32:59.106Z,1017.66
2023-02-01T04:33:59.089Z,1017.57
2023-02-01T04:34:59.085Z,1017.58
2023-02-01T04:35:59.142Z,1017.51
2023-02-01T04:36:59.077Z,1017.52
2023-02-01T04:37:59.050Z,1017.61
2023-02-01T04:38:59.049Z,1017.64
2023-02-01T04:39:59.038Z,1017.45
2023-02-01T04:40:59.066Z,1017.54
2023-02-01T04:41:59.015Z,1017.67
2023-02-01T04:42:58.982Z,1017.66
2023-02-01T04:43:58.988Z,1017.70
2023-02-01T04:44:58.977Z,1017.70
2023-02-01T04:45:58.978Z,1017.71
2023-02-01T04:46:58.964Z,1017.68
2023-02-01T04:47:58.938Z,1017.79
2023-02-01T04:49:08.081Z,1017.68
2023-02-01T04:49:58.875Z,1017.66
2023-02-01T04:50:58.877Z,1017.72
2023-02-01T04:51:58.885Z,1017.66
2023-02-01T04:52:58.851Z,1017.70
2023-02-01T04:53:58.842Z,1017.61
2023-02-01T04:54:59.451Z,1017.66
2023-02-01T04:55:58.844Z,1017.75
2023-02-01T04:56:58.810Z,1017.68
2023-02-01T04:57:58.829Z,1017.70
2023-02-01T04:58:58.768Z,1017.68
2023-02-01T04:59:58.754Z,1017.68
2023-02-01T05:00:58.827Z,1017.53
2023-02-01T05:01:58.786Z,1017.56
2023-02-01T05:02:58.731Z,1017.60
2023-02-01T05:03:58.779Z,1017.66
2023-02-01T05:04:58.781Z,1017.69
2023-02-01T05:05:58.761Z,1017.57
2023-02-01T05:06:58.722Z,1017.68
2023-02-01T05:07:58.664Z,1017.67
2023-02-01T05:08:58.651Z,1017.67
2023-02-01T05:09:58.628Z,1017.69
2023-02-01T05:10:58.669Z,1017.75
2023-02-01T05:11:58.670Z,1017.72
2023-02-01T05:12:58.596Z,1017.67
2023-02-01T05:13:59.180Z,1017.72
2023-02-01T05:14:58.563Z,1017.69
2023-02-01T05:15:58.599Z,1017.68
2023-02-01T05:16:58.539Z,1017.71
2023-02-01T05:17:58.581Z,1017.65
2023-02-01T05:18:58.571Z,1017.65
2023-02-01T05:19:58.517Z,1017.60
2023-02-01T05:20:58.517Z,1017.70
2023-02-01T05:21:58.476Z,1017.67
2023-02-01T05:22:58.492Z,1017.72
2023-02-01T05:23:58.512Z,1017.68
2023-02-01T05:24:58.473Z,1017.69
2023-02-01T05:25:58.436Z,1017.71
2023-02-01T05:26:58.434Z,1017.74
2023-02-01T05:27:58.418Z,1017.78
2023-02-01T05:28:58.397Z,1017.83
2023-02-01T05:29:58.438Z,1017.78
2023-02-01T05:30:58.509Z,1017.87
2023-02-01T05:32:05.244Z,1017.86
2023-02-01T05:32:59.345Z,1017.79
2023-02-01T05:33:58.361Z,1017.70
2023-02-01T05:34:58.341Z,1017.71
2023-02-01T05:35:58.337Z,1017.80
2023-02-01T05:36:58.382Z,1017.85
2023-02-01T05:37:58.340Z,1017.80
2023-02-01T05:38:58.268Z,1017.77
2023-02-01T05:39:58.274Z,1017.77
2023-02-01T05:40:58.309Z,1017.75
2023-02-01T05:41:58.254Z,1017.71
2023-02-01T05:42:58.261Z,1017.70
2023-02-01T05:43:58.217Z,1017.73
2023-02-01T05:44:58.199Z,1017.68
2023-02-01T05:45:58.252Z,1017.74
2023-02-01T05:46:58.181Z,1017.74
2023-02-01T05:47:58.170Z,1017.69
2023-02-01T05:48:58.195Z,1017.71
2023-02-01T05:49:58.199Z,1017.61
2023-02-01T05:50:58.164Z,1017.70
2023-02-01T05:52:00.289Z,1017.64
2023-02-01T05:52:58.157Z,1017.60
2023-02-01T05:53:58.131Z,1017.59
2023-02-01T05:54:58.105Z,1017.61
2023-02-01T05:55:58.071Z,1017.48
2023-02-01T05:56:58.051Z,1017.58
2023-02-01T05:57:58.150Z,1017.56
2023-02-01T05:58:58.065Z,1017.60
2023-02-01T05:59:59.507Z,1017.56
2023-02-01T06:00:58.019Z,1017.60
2023-02-01T06:01:58.047Z,1017.58
2023-02-01T06:02:58.112Z,1017.52
2023-02-01T06:03:58.042Z,1017.53
2023-02-01T06:04:57.947Z,1017.59
2023-02-01T06:05:57.955Z,1017.57
2023-02-01T06:06:57.916Z,1017.58
2023-02-01T06:07:57.928Z,1017.56
2023-02-01T06:08:57.907Z,1017.61
2023-02-01T06:09:57.941Z,1017.54
2023-02-01T06:10:57.912Z,1017.54
2023-02-01T06:11:57.898Z,1017.44
2023-02-01T06:12:57.857Z,1017.54
2023-02-01T06:13:57.853Z,1017.62
2023-02-01T06:14:57.830Z,1017.57
2023-02-01T06:15:57.935Z,1017.64
2023-02-01T06:16:57.840Z,1017.62
2023-02-01T06:17:57.781Z,1017.72
2023-02-01T06:18:57.788Z,1017.66
2023-02-01T06:19:57.795Z,1017.78
2023-02-01T06:20:57.748Z,1017.83
2023-02-01T06:21:57.749Z,1017.82
2023-02-01T06:22:57.829Z,1017.77
2023-02-01T06:23:57.734Z,1017.77
2023-02-01T06:24:57.720Z,1017.73
2023-02-01T06:25:57.735Z,1017.63
2023-02-01T06:27:07.716Z,1017.75
2023-02-01T06:27:57.695Z,1017.76
2023-02-01T06:28:57.675Z,1017.72
2023-02-01T06:29:57.668Z,1017.66
2023-02-01T06:30:57.733Z,1017.71
2023-02-01T06:31:57.651Z,1017.69
2023-02-01T06:32:57.683Z,1017.71
2023-02-01T06:33:57.621Z,1017.74
2023-02-01T06:34:57.621Z,1017.75
2023-02-01T06:35:57.597Z,1017.76
2023-02-01T06:36:57.591Z,1017.83
2023-02-01T06:37:57.592Z,1017.63
2023-02-01T06:38:57.535Z,1017.63
2023-02-01T06:39:57.541Z,1017.57
2023-02-01T06:40:57.560Z,1017.55
2023-02-01T06:41:57.509Z,1017.54
2023-02-01T06:42:57.552Z,1017.58
2023-02-01T06:43:57.490Z,1017.64
2023-02-01T06:44:57.499Z,1017.65
2023-02-01T06:45:57.463Z,1017.65
2023-02-01T06:46:57.546Z,1017.61
2023-02-01T06:47:57.412Z,1017.68
2023-02-01T06:48:57.497Z,1017.51
2023-02-01T06:49:57.387Z,1017.65
2023-02-01T06:50:57.395Z,1017.69
2023-02-01T06:51:57.400Z,1017.60
2023-02-01T06:52:57.358Z,1017.69
2023-02-01T06:53:57.413Z,1017.73
2023-02-01T06:54:57.346Z,1017.67
2023-02-01T06:55:57.332Z,1017.64
2023-02-01T06:56:57.349Z,1017.61
2023-02-01T06:57:57.326Z,1017.56
2023-02-01T06:58:57.332Z,1017.64
2023-02-01T06:59:57.286Z,1017.70
2023-02-01T07:00:57.283Z,1017.68
2023-02-01T07:01:57.327Z,1017.72
2023-02-01T07:02:57.257Z,1017.68
2023-02-01T07:03:57.237Z,1017.71
2023-02-01T07:04:57.220Z,1017.74
2023-02-01T07:05:57.204Z,1017.75
2023-02-01T07:06:57.214Z,1017.70
2023-02-01T07:07:57.218Z,1017.68
2023-02-01T07:08:57.216Z,1017.77
2023-02-01T07:09:57.167Z,1017.75
2023-02-01T07:10:57.249Z,1017.79
2023-02-01T07:11:57.397Z,1017.84
2023-02-01T07:12:57.167Z,1017.67
2023-02-01T07:13:57.166Z,1017.88
2023-02-01T07:14:57.184Z,1017.87
2023-02-01T07:15:57.201Z,1017.80
2023-02-01T07:16:57.114Z,1017.79
2023-02-01T07:17:57.064Z,1017.80
2023-02-01T07:18:57.054Z,1017.84
2023-02-01T07:19:57.123Z,1017.82
2023-02-01T07:20:57.097Z,1017.84
2023-02-01T07:21:57.049Z,1017.78
2023-02-01T07:22:57.052Z,1017.83
2023-02-01T07:23:57.019Z,1017.86
2023-02-01T07:24:57.028Z,1017.78
2023-02-01T07:25:57.337Z,1017.84
2023-02-01T07:26:57.232Z,1017.73
2023-02-01T07:27:56.953Z,1017.87
2023-02-01T07:28:56.924Z,1017.78
2023-02-01T07:29:56.910Z,1017.90
2023-02-01T07:30:56.988Z,1017.90
2023-02-01T07:31:56.885Z,1017.86
2023-02-01T07:32:56.999Z,1017.81
2023-02-01T07:33:56.907Z,1017.84
2023-02-01T07:34:56.872Z,1017.82
2023-02-01T07:35:56.856Z,1017.84
2023-02-01T07:36:56.875Z,1017.86
2023-02-01T07:37:56.839Z,1017.81
2023-02-01T07:38:57.117Z,1017.89
2023-02-01T07:39:56.820Z,1017.88
2023-02-01T07:40:56.795Z,1017.91
2023-02-01T07:41:57.052Z,1017.95
2023-02-01T07:42:56.754Z,1017.94
2023-02-01T07:43:56.790Z,1017.98
2023-02-01T07:44:57.568Z,1017.95
2023-02-01T07:45:56.827Z,1017.98
2023-02-01T07:46:56.743Z,1018.00
2023-02-01T07:47:56.700Z,1018.05
2023-02-01T07:48:56.672Z,1018.05
2023-02-01T07:49:56.696Z,1017.96
2023-02-01T07:50:56.643Z,1017.97
2023-02-01T07:51:56.658Z,1017.97
2023-02-01T07:52:56.644Z,1018.03
2023-02-01T07:53:56.611Z,1018.04
2023-02-01T07:54:56.640Z,1017.95
2023-02-01T07:55:56.580Z,1018.06
2023-02-01T07:56:56.590Z,1018.08
2023-02-01T07:57:56.568Z,1018.10
2023-02-01T07:58:57.350Z,1018.09
2023-02-01T07:59:56.592Z,1017.99
2023-02-01T08:00:56.601Z,1018.02
2023-02-01T08:01:56.600Z,1018.09
2023-02-01T08:02:56.507Z,1018.06
2023-02-01T08:03:56.673Z,1018.11
2023-02-01T08:04:56.557Z,1018.10
2023-02-01T08:05:56.571Z,1018.06
2023-02-01T08:06:56.594Z,1018.04
2023-02-01T08:07:56.535Z,1018.11
2023-02-01T08:08:56.668Z,1018.13
2023-02-01T08:09:56.485Z,1018.21
2023-02-01T08:10:56.622Z,1018.07
2023-02-01T08:11:56.413Z,1018.08
2023-02-01T08:12:56.480Z,1018.10
2023-02-01T08:13:56.491Z,1018.03
2023-02-01T08:14:56.453Z,1018.04
2023-02-01T08:15:56.400Z,1018.10
2023-02-01T08:16:56.435Z,1018.08
2023-02-01T08:17:56.456Z,1018.08
2023-02-01T08:18:56.470Z,1018.14
2023-02-01T08:19:56.440Z,1017.99
2023-02-01T08:20:56.418Z,1018.04
2023-02-01T08:21:56.312Z,1018.11
2023-02-01T08:22:56.284Z,1018.16
2023-02-01T08:23:56.280Z,1018.11
2023-02-01T08:24:56.311Z,1018.03
2023-02-01T08:25:56.268Z,1018.16
2023-02-01T08:26:56.342Z,1018.18
2023-02-01T08:27:56.263Z,1018.26
2023-02-01T08:28:56.281Z,1018.21
2023-02-01T08:29:56.171Z,1018.21
2023-02-01T08:30:56.240Z,1018.18
2023-02-01T08:31:56.258Z,1018.22
2023-02-01T08:32:56.205Z,1018.19
2023-02-01T08:33:56.134Z,1018.26
2023-02-01T08:34:56.200Z,1018.28
2023-02-01T08:35:56.149Z,1018.34
2023-02-01T08:36:56.142Z,1018.30
2023-02-01T08:37:56.340Z,1018.40
2023-02-01T08:38:56.145Z,1018.41
2023-02-01T08:39:56.123Z,1018.37
2023-02-01T08:40:56.087Z,1018.37
2023-02-01T08:41:56.070Z,1018.40
2023-02-01T08:42:56.040Z,1018.41
2023-02-01T08:43:56.192Z,1018.42
2023-02-01T08:44:56.388Z,1018.37
2023-02-01T08:45:57.039Z,1018.41
2023-02-01T08:46:56.007Z,1018.42
2023-02-01T08:48:03.570Z,1018.43
2023-02-01T08:48:55.953Z,1018.45
2023-02-01T08:49:55.979Z,1018.38
2023-02-01T08:50:55.944Z,1018.40
2023-02-01T08:51:58.563Z,1018.44
2023-02-01T08:52:56.935Z,1018.43
2023-02-01T08:53:55.930Z,1018.39
2023-02-01T08:54:55.939Z,1018.41
2023-02-01T08:55:55.904Z,1018.47
2023-02-01T08:56:55.929Z,1018.41
2023-02-01T08:57:55.852Z,1018.42
2023-02-01T08:58:55.856Z,1018.43
2023-02-01T08:59:55.869Z,1018.45
2023-02-01T09:00:55.908Z,1018.36
2023-02-01T09:01:55.828Z,1018.44
2023-02-01T09:02:55.795Z,1018.46
2023-02-01T09:03:55.879Z,1018.37
2023-02-01T09:04:55.783Z,1018.45
2023-02-01T09:05:55.812Z,1018.42
2023-02-01T09:06:55.771Z,1018.36
2023-02-01T09:07:55.796Z,1018.30
2023-02-01T09:08:55.726Z,1018.27
2023-02-01T09:09:55.737Z,1018.28
2023-02-01T09:10:55.708Z,1018.27
2023-02-01T09:11:55.736Z,1018.16
2023-02-01T09:12:55.691Z,1018.16
2023-02-01T09:13:55.653Z,1018.16
2023-02-01T09:14:55.736Z,1018.15
2023-02-01T09:15:55.670Z,1018.13
2023-02-01T09:16:55.616Z,1018.05
2023-02-01T09:17:55.636Z,1018.10
2023-02-01T09:18:56.519Z,1018.09
2023-02-01T09:19:56.578Z,1018.12
2023-02-01T09:20:55.608Z,1018.02
2023-02-01T09:21:55.558Z,1017.94
2023-02-01T09:22:57.358Z,1018.01
2023-02-01T09:23:55.547Z,1018.01
2023-02-01T09:24:55.596Z,1018.02
2023-02-01T09:25:55.529Z,1018.03
2023-02-01T09:26:55.519Z,1017.98
2023-02-01T09:27:55.484Z,1018.02
2023-02-01T09:28:55.514Z,1018.06
2023-02-01T09:29:55.466Z,1018.07
2023-02-01T09:30:55.533Z,1018.08
2023-02-01T09:32:03.226Z,1018.00
2023-02-01T09:32:56.473Z,1018.00
2023-02-01T09:33:55.450Z,1017.90
2023-02-01T09:34:55.413Z,1017.88
2023-02-01T09:35:55.436Z,1018.05
2023-02-01T09:36:55.392Z,1017.96
2023-02-01T09:37:55.382Z,1017.94
2023-02-01T09:38:55.381Z,1017.90
2023-02-01T09:39:55.353Z,1017.95
2023-02-01T09:40:55.351Z,1017.91
2023-02-01T09:41:55.318Z,1018.05
2023-02-01T09:42:55.323Z,1018.03
2023-02-01T09:43:55.296Z,1017.93
2023-02-01T09:44:55.326Z,1018.03
2023-02-01T09:45:55.294Z,1017.91
2023-02-01T09:46:55.269Z,1017.98
2023-02-01T09:47:55.232Z,1017.96
2023-02-01T09:48:55.260Z,1018.04
2023-02-01T09:49:55.327Z,1018.05
2023-02-01T09:50:55.211Z,1018.10
2023-02-01T09:51:55.212Z,1018.10
2023-02-01T09:52:55.188Z,1018.11
2023-02-01T09:53:55.175Z,1018.06
2023-02-01T09:54:55.209Z,1017.98
2023-02-01T09:55:55.151Z,1017.95
2023-02-01T09:56:55.151Z,1018.00
2023-02-01T09:57:57.824Z,1018.01
2023-02-01T09:58:55.120Z,1018.03
2023-02-01T09:59:55.101Z,1017.97
2023-02-01T10:00:55.127Z,1017.98
2023-02-01T10:01:55.081Z,1017.96
2023-02-01T10:02:55.081Z,1017.98
2023-02-01T10:03:55.133Z,1018.00
2023-02-01T10:04:55.044Z,1018.06
2023-02-01T10:06:03.711Z,1018.04
2023-02-01T10:07:08.155Z,1017.96
2023-02-01T10:08:02.565Z,1018.03
2023-02-01T10:09:02.515Z,1018.05
2023-02-01T10:10:02.498Z,1018.08
2023-02-01T10:11:02.508Z,1018.01
2023-02-01T10:12:03.661Z,1018.05
2023-02-01T10:13:02.472Z,1017.99
2023-02-01T10:13:54.984Z,1017.92
2023-02-01T10:14:55.000Z,1017.85
2023-02-01T10:15:55.002Z,1017.83
2023-02-01T10:16:54.918Z,1017.81
2023-02-01T10:17:56.738Z,1017.95
2023-02-01T10:18:54.859Z,1017.87
2023-02-01T10:19:54.886Z,1017.86
2023-02-01T10:20:54.848Z,1017.94
2023-02-01T10:21:54.902Z,1017.74
2023-02-01T10:23:57.361Z,1017.75
2023-02-01T10:24:54.793Z,1017.80
2023-02-01T10:25:54.817Z,1017.88
2023-02-01T10:26:54.836Z,1017.90
2023-02-01T10:27:54.823Z,1017.89
2023-02-01T10:28:54.758Z,1017.98
2023-02-01T10:29:54.778Z,1018.02
2023-02-01T10:30:54.814Z,1018.07
2023-02-01T10:31:54.953Z,1017.93
2023-02-01T10:32:57.970Z,1017.99
2023-02-01T10:33:54.729Z,1017.93
2023-02-01T10:34:54.696Z,1017.97
2023-02-01T10:35:54.701Z,1018.01
2023-02-01T10:36:54.653Z,1017.93
2023-02-01T10:37:54.685Z,1017.86
2023-02-01T10:38:54.674Z,1017.94
2023-02-01T10:39:54.639Z,1017.95
2023-02-01T10:40:54.688Z,1017.85
2023-02-01T10:41:54.631Z,1017.93
2023-02-01T10:42:54.603Z,1018.03
2023-02-01T10:43:54.575Z,1017.87
2023-02-01T10:44:54.568Z,1017.80
2023-02-01T10:45:54.580Z,1017.94
2023-02-01T10:46:54.515Z,1017.97
2023-02-01T10:47:54.538Z,1018.04
2023-02-01T10:48:54.507Z,1017.90
2023-02-01T10:50:04.847Z,1017.89
2023-02-01T10:50:54.500Z,1017.90
2023-02-01T10:51:54.549Z,1017.88
2023-02-01T10:52:55.134Z,1017.77
2023-02-01T10:53:54.481Z,1017.89
2023-02-01T10:54:54.476Z,1017.82
2023-02-01T10:55:54.751Z,1017.75
2023-02-01T10:56:54.714Z,1017.87
2023-02-01T10:57:54.387Z,1017.89
2023-02-01T10:58:54.579Z,1017.89
2023-02-01T10:59:54.433Z,1017.86
2023-02-01T11:00:54.545Z,1017.87
2023-02-01T11:01:59.678Z,1017.85
2023-02-01T11:02:55.430Z,1017.82
2023-02-01T11:03:54.491Z,1017.87
2023-02-01T11:04:54.377Z,1017.88
2023-02-01T11:05:54.354Z,1017.82
2023-02-01T11:06:54.330Z,1017.77
2023-02-01T11:07:57.630Z,1017.66
2023-02-01T11:08:54.406Z,1017.80
2023-02-01T11:09:54.556Z,1017.75
2023-02-01T11:10:54.243Z,1017.77
2023-02-01T11:11:54.545Z,1017.71
2023-02-01T11:12:54.493Z,1017.71
2023-02-01T11:13:54.334Z,1017.56
2023-02-01T11:14:54.209Z,1017.61
2023-02-01T11:15:56.128Z,1017.64
2023-02-01T11:16:54.459Z,1017.59
2023-02-01T11:17:54.147Z,1017.62
2023-02-01T11:18:54.229Z,1017.53
2023-02-01T11:19:54.219Z,1017.53
2023-02-01T11:20:54.107Z,1017.49
2023-02-01T11:21:54.185Z,1017.59
2023-02-01T11:22:54.115Z,1017.58
2023-02-01T11:23:54.209Z,1017.54
2023-02-01T11:24:54.136Z,1017.53
2023-02-01T11:25:54.079Z,1017.49
2023-02-01T11:26:54.186Z,1017.38
2023-02-01T11:27:55.759Z,1017.41
2023-02-01T11:28:54.158Z,1017.38
2023-02-01T11:29:54.041Z,1017.34
2023-02-01T11:30:54.224Z,1017.29
2023-02-01T11:31:54.024Z,1017.27
2023-02-01T11:32:53.941Z,1017.22
2023-02-01T11:33:54.037Z,1017.08
2023-02-01T11:34:54.293Z,1017.09
2023-02-01T11:35:53.989Z,1017.26
2023-02-01T11:36:53.953Z,1017.04
2023-02-01T11:37:53.884Z,1017.05
2023-02-01T11:38:53.903Z,1017.06
2023-02-01T11:39:53.903Z,1017.09
2023-02-01T11:40:53.886Z,1017.20
2023-02-01T11:41:53.911Z,1017.25
2023-02-01T11:42:53.907Z,1017.17
2023-02-01T11:43:53.875Z,1017.16
2023-02-01T11:44:53.855Z,1017.31
2023-02-01T11:45:53.821Z,1017.29
2023-02-01T11:46:53.821Z,1017.34
2023-02-01T11:47:53.796Z,1017.28
2023-02-01T11:48:53.786Z,1017.35
2023-02-01T11:49:53.836Z,1017.25
2023-02-01T11:50:53.775Z,1017.23
2023-02-01T11:51:53.732Z,1017.44
2023-02-01T11:53:00.505Z,1017.34
2023-02-01T11:53:53.689Z,1017.28
2023-02-01T11:54:53.862Z,1017.19
2023-02-01T11:55:53.738Z,1017.17
2023-02-01T11:56:53.724Z,1017.27
2023-02-01T11:57:53.676Z,1017.15
2023-02-01T11:58:53.688Z,1017.10
2023-02-01T11:59:56.793Z,1017.05
2023-02-01T12:00:53.640Z,1017.06
2023-02-01T12:01:53.634Z,1017.14
2023-02-01T12:02:53.630Z,1017.11
2023-02-01T12:03:53.594Z,1017.14
2023-02-01T12:04:53.609Z,1017.23
2023-02-01T12:05:53.612Z,1017.05
2023-02-01T12:06:53.633Z,1017.11